sensor_id;sensor_type;location;lat;lon;timestamp;P1;durP1;ratioP1;P2;durP2;ratioP2
10333;SDS011;5212;47.892;16.406;2022-10-30T00:01:24;10.27;;;9.17;;
10333;SDS011;5212;47.892;16.406;2022-10-30T00:03:52;9.77;;;8.77;;
10333;SDS011;5212;47.892;16.406;2022-10-30T00:06:19;9.23;;;8.33;;
10333;SDS011;5212;47.892;16.406;2022-10-30T00:08:45;9.87;;;8.70;;
10333;SDS011;5212;47.892;16.406;2022-10-30T00:11:12;9.60;;;8.63;;
10333;SDS011;5212;47.892;16.406;2022-10-30T00:13:41;13.90;;;11.97;;
10333;SDS011;5212;47.892;16.406;2022-10-30T00:16:11;11.43;;;10.23;;
10333;SDS011;5212;47.892;16.406;2022-10-30T00:18:38;13.17;;;9.93;;
10333;SDS011;5212;47.892;16.406;2022-10-30T00:21:07;13.43;;;10.63;;
10333;SDS011;5212;47.892;16.406;2022-10-30T00:23:34;10.70;;;9.43;;
10333;SDS011;5212;47.892;16.406;2022-10-30T00:26:02;10.50;;;9.40;;
10333;SDS011;5212;47.892;16.406;2022-10-30T00:28:29;10.67;;;9.57;;
10333;SDS011;5212;47.892;16.406;2022-10-30T00:30:57;9.90;;;8.73;;
10333;SDS011;5212;47.892;16.406;2022-10-30T00:33:27;10.40;;;9.40;;
10333;SDS011;5212;47.892;16.406;2022-10-30T00:35:56;9.67;;;8.67;;
10333;SDS011;5212;47.892;16.406;2022-10-30T00:38:23;11.60;;;9.80;;
10333;SDS011;5212;47.892;16.406;2022-10-30T00:40:50;10.17;;;9.07;;
10333;SDS011;5212;47.892;16.406;2022-10-30T00:43:27;8.80;;;7.90;;
10333;SDS011;5212;47.892;16.406;2022-10-30T00:45:59;10.50;;;9.40;;
10333;SDS011;5212;47.892;16.406;2022-10-30T00:48:35;9.80;;;8.80;;
10333;SDS011;5212;47.892;16.406;2022-10-30T00:51:02;8.83;;;7.97;;
10333;SDS011;5212;47.892;16.406;2022-10-30T00:53:30;9.23;;;8.33;;
10333;SDS011;5212;47.892;16.406;2022-10-30T00:55:58;8.70;;;7.90;;
10333;SDS011;5212;47.892;16.406;2022-10-30T00:58:28;8.27;;;7.47;;
10333;SDS011;5212;47.892;16.406;2022-10-30T01:00:59;8.87;;;7.97;;
10333;SDS011;5212;47.892;16.406;2022-10-30T01:03:29;8.53;;;7.60;;
10333;SDS011;5212;47.892;16.406;2022-10-30T01:05:59;7.90;;;7.20;;
10333;SDS011;5212;47.892;16.406;2022-10-30T01:08:28;8.13;;;7.23;;
10333;SDS011;5212;47.892;16.406;2022-10-30T01:10:55;7.90;;;7.20;;
10333;SDS011;5212;47.892;16.406;2022-10-30T01:13:23;7.43;;;6.73;;
10333;SDS011;5212;47.892;16.406;2022-10-30T01:15:52;7.93;;;7.13;;
10333;SDS011;5212;47.892;16.406;2022-10-30T01:18:28;7.43;;;6.73;;
10333;SDS011;5212;47.892;16.406;2022-10-30T01:23:52;7.80;;;7.00;;
10333;SDS011;5212;47.892;16.406;2022-10-30T01:26:27;9.20;;;8.20;;
10333;SDS011;5212;47.892;16.406;2022-10-30T01:29:04;8.93;;;8.03;;
10333;SDS011;5212;47.892;16.406;2022-10-30T01:31:40;7.30;;;6.60;;
10333;SDS011;5212;47.892;16.406;2022-10-30T01:34:16;7.80;;;7.10;;
10333;SDS011;5212;47.892;16.406;2022-10-30T01:36:48;9.10;;;8.20;;
10333;SDS011;5212;47.892;16.406;2022-10-30T01:39:18;7.70;;;6.93;;
10333;SDS011;5212;47.892;16.406;2022-10-30T01:41:47;7.93;;;7.23;;
10333;SDS011;5212;47.892;16.406;2022-10-30T01:44:15;8.53;;;7.67;;
10333;SDS011;5212;47.892;16.406;2022-10-30T01:46:49;7.73;;;7.03;;
10333;SDS011;5212;47.892;16.406;2022-10-30T01:49:41;7.73;;;7.00;;
10333;SDS011;5212;47.892;16.406;2022-10-30T01:52:17;7.80;;;7.00;;
10333;SDS011;5212;47.892;16.406;2022-10-30T01:54:51;11.13;;;9.90;;
10333;SDS011;5212;47.892;16.406;2022-10-30T01:57:30;10.77;;;9.13;;
10333;SDS011;5212;47.892;16.406;2022-10-30T02:00:02;10.80;;;9.00;;
10333;SDS011;5212;47.892;16.406;2022-10-30T02:02:30;8.47;;;7.67;;
10333;SDS011;5212;47.892;16.406;2022-10-30T02:04:58;8.77;;;7.90;;
10333;SDS011;5212;47.892;16.406;2022-10-30T02:07:27;9.17;;;8.27;;
10333;SDS011;5212;47.892;16.406;2022-10-30T02:09:53;9.80;;;8.80;;
10333;SDS011;5212;47.892;16.406;2022-10-30T02:12:20;9.60;;;8.60;;
10333;SDS011;5212;47.892;16.406;2022-10-30T02:14:49;9.40;;;8.47;;
10333;SDS011;5212;47.892;16.406;2022-10-30T02:17:19;8.77;;;7.87;;
10333;SDS011;5212;47.892;16.406;2022-10-30T02:19:46;7.80;;;7.10;;
10333;SDS011;5212;47.892;16.406;2022-10-30T02:22:15;9.20;;;8.30;;
10333;SDS011;5212;47.892;16.406;2022-10-30T02:24:42;8.97;;;7.87;;
10333;SDS011;5212;47.892;16.406;2022-10-30T02:27:09;8.47;;;7.57;;
10333;SDS011;5212;47.892;16.406;2022-10-30T02:29:36;7.80;;;7.10;;
10333;SDS011;5212;47.892;16.406;2022-10-30T02:32:03;9.13;;;8.23;;
10333;SDS011;5212;47.892;16.406;2022-10-30T02:34:30;9.00;;;8.13;;
10333;SDS011;5212;47.892;16.406;2022-10-30T02:36:57;11.20;;;8.60;;
10333;SDS011;5212;47.892;16.406;2022-10-30T02:39:26;8.00;;;7.30;;
10333;SDS011;5212;47.892;16.406;2022-10-30T02:41:52;7.23;;;6.53;;
10333;SDS011;5212;47.892;16.406;2022-10-30T02:44:20;8.47;;;7.57;;
10333;SDS011;5212;47.892;16.406;2022-10-30T02:46:49;9.73;;;8.20;;
10333;SDS011;5212;47.892;16.406;2022-10-30T02:49:16;7.83;;;7.03;;
10333;SDS011;5212;47.892;16.406;2022-10-30T02:51:43;8.63;;;7.70;;
10333;SDS011;5212;47.892;16.406;2022-10-30T02:54:10;7.87;;;7.10;;
10333;SDS011;5212;47.892;16.406;2022-10-30T02:56:40;8.33;;;7.53;;
10333;SDS011;5212;47.892;16.406;2022-10-30T02:59:07;8.30;;;7.50;;
10333;SDS011;5212;47.892;16.406;2022-10-30T03:01:34;7.97;;;7.17;;
10333;SDS011;5212;47.892;16.406;2022-10-30T03:04:01;7.10;;;6.40;;
10333;SDS011;5212;47.892;16.406;2022-10-30T03:06:28;7.13;;;6.43;;
10333;SDS011;5212;47.892;16.406;2022-10-30T03:08:57;7.73;;;6.97;;
10333;SDS011;5212;47.892;16.406;2022-10-30T03:11:24;7.57;;;6.83;;
10333;SDS011;5212;47.892;16.406;2022-10-30T03:13:52;7.40;;;6.70;;
10333;SDS011;5212;47.892;16.406;2022-10-30T03:16:20;8.93;;;8.07;;
10333;SDS011;5212;47.892;16.406;2022-10-30T03:18:49;8.30;;;7.50;;
10333;SDS011;5212;47.892;16.406;2022-10-30T03:21:17;8.87;;;8.00;;
10333;SDS011;5212;47.892;16.406;2022-10-30T03:23:46;9.37;;;8.47;;
10333;SDS011;5212;47.892;16.406;2022-10-30T03:26:14;9.20;;;8.30;;
10333;SDS011;5212;47.892;16.406;2022-10-30T03:28:42;7.30;;;6.60;;
10333;SDS011;5212;47.892;16.406;2022-10-30T03:31:11;9.60;;;8.60;;
10333;SDS011;5212;47.892;16.406;2022-10-30T03:33:39;10.50;;;8.70;;
10333;SDS011;5212;47.892;16.406;2022-10-30T03:36:07;8.37;;;7.57;;
10333;SDS011;5212;47.892;16.406;2022-10-30T03:38:35;8.77;;;7.87;;
10333;SDS011;5212;47.892;16.406;2022-10-30T03:41:02;7.67;;;6.90;;
10333;SDS011;5212;47.892;16.406;2022-10-30T03:43:32;7.67;;;6.87;;
10333;SDS011;5212;47.892;16.406;2022-10-30T03:45:59;8.07;;;7.27;;
10333;SDS011;5212;47.892;16.406;2022-10-30T03:48:27;6.83;;;6.23;;
10333;SDS011;5212;47.892;16.406;2022-10-30T03:50:55;7.33;;;6.57;;
10333;SDS011;5212;47.892;16.406;2022-10-30T03:53:23;7.63;;;6.93;;
10333;SDS011;5212;47.892;16.406;2022-10-30T03:55:55;7.43;;;6.63;;
10333;SDS011;5212;47.892;16.406;2022-10-30T03:58:23;7.23;;;6.53;;
10333;SDS011;5212;47.892;16.406;2022-10-30T04:00:50;7.07;;;6.37;;
10333;SDS011;5212;47.892;16.406;2022-10-30T04:03:16;6.83;;;6.13;;
10333;SDS011;5212;47.892;16.406;2022-10-30T04:05:45;6.77;;;6.07;;
10333;SDS011;5212;47.892;16.406;2022-10-30T04:08:15;7.47;;;6.77;;
10333;SDS011;5212;47.892;16.406;2022-10-30T04:10:42;8.00;;;7.20;;
10333;SDS011;5212;47.892;16.406;2022-10-30T04:13:10;7.23;;;6.53;;
10333;SDS011;5212;47.892;16.406;2022-10-30T04:15:37;7.47;;;6.70;;
10333;SDS011;5212;47.892;16.406;2022-10-30T04:18:05;9.40;;;6.83;;
10333;SDS011;5212;47.892;16.406;2022-10-30T04:20:32;7.20;;;6.43;;
10333;SDS011;5212;47.892;16.406;2022-10-30T04:23:02;7.37;;;6.67;;
10333;SDS011;5212;47.892;16.406;2022-10-30T04:25:30;8.47;;;7.67;;
10333;SDS011;5212;47.892;16.406;2022-10-30T04:27:59;7.87;;;7.10;;
10333;SDS011;5212;47.892;16.406;2022-10-30T04:30:26;7.00;;;6.30;;
10333;SDS011;5212;47.892;16.406;2022-10-30T04:32:55;7.90;;;7.20;;
10333;SDS011;5212;47.892;16.406;2022-10-30T04:35:23;8.00;;;7.20;;
10333;SDS011;5212;47.892;16.406;2022-10-30T04:37:51;6.30;;;5.70;;
10333;SDS011;5212;47.892;16.406;2022-10-30T04:40:20;6.63;;;6.03;;
10333;SDS011;5212;47.892;16.406;2022-10-30T04:42:48;6.40;;;5.80;;
10333;SDS011;5212;47.892;16.406;2022-10-30T04:45:16;6.47;;;5.50;;
10333;SDS011;5212;47.892;16.406;2022-10-30T04:47:43;6.17;;;5.53;;
10333;SDS011;5212;47.892;16.406;2022-10-30T04:50:10;6.20;;;5.60;;
10333;SDS011;5212;47.892;16.406;2022-10-30T04:52:37;5.67;;;5.17;;
10333;SDS011;5212;47.892;16.406;2022-10-30T04:55:05;6.30;;;5.70;;
10333;SDS011;5212;47.892;16.406;2022-10-30T04:57:34;5.70;;;5.20;;
10333;SDS011;5212;47.892;16.406;2022-10-30T05:00:02;7.17;;;5.97;;
10333;SDS011;5212;47.892;16.406;2022-10-30T05:02:30;5.67;;;5.17;;
10333;SDS011;5212;47.892;16.406;2022-10-30T05:04:57;5.63;;;5.13;;
10333;SDS011;5212;47.892;16.406;2022-10-30T05:07:24;5.73;;;5.23;;
10333;SDS011;5212;47.892;16.406;2022-10-30T05:09:50;5.97;;;5.33;;
10333;SDS011;5212;47.892;16.406;2022-10-30T05:12:18;5.60;;;5.10;;
10333;SDS011;5212;47.892;16.406;2022-10-30T05:14:46;5.87;;;5.27;;
10333;SDS011;5212;47.892;16.406;2022-10-30T05:17:13;5.60;;;5.10;;
10333;SDS011;5212;47.892;16.406;2022-10-30T05:19:40;6.10;;;5.50;;
10333;SDS011;5212;47.892;16.406;2022-10-30T05:22:07;6.67;;;5.70;;
10333;SDS011;5212;47.892;16.406;2022-10-30T05:24:34;7.50;;;6.07;;
10333;SDS011;5212;47.892;16.406;2022-10-30T05:27:01;6.17;;;5.67;;
10333;SDS011;5212;47.892;16.406;2022-10-30T05:29:28;5.63;;;5.13;;
10333;SDS011;5212;47.892;16.406;2022-10-30T05:31:57;5.73;;;5.23;;
10333;SDS011;5212;47.892;16.406;2022-10-30T06:57:14;5.30;;;4.80;;
10333;SDS011;5212;47.892;16.406;2022-10-30T06:59:41;6.00;;;5.40;;
10333;SDS011;5212;47.892;16.406;2022-10-30T07:25:23;4.17;;;3.77;;
10333;SDS011;5212;47.892;16.406;2022-10-30T07:33:01;4.83;;;4.43;;
10333;SDS011;5212;47.892;16.406;2022-10-30T07:53:36;4.00;;;3.60;;
10333;SDS011;5212;47.892;16.406;2022-10-30T07:56:03;5.50;;;5.00;;
10333;SDS011;5212;47.892;16.406;2022-10-30T07:58:30;6.10;;;5.60;;
10333;SDS011;5212;47.892;16.406;2022-10-30T08:00:58;6.30;;;5.70;;
10333;SDS011;5212;47.892;16.406;2022-10-30T09:06:43;7.20;;;6.50;;
10333;SDS011;5212;47.892;16.406;2022-10-30T09:19:30;6.23;;;5.63;;
10333;SDS011;5212;47.892;16.406;2022-10-30T09:24:34;6.70;;;6.00;;
10333;SDS011;5212;47.892;16.406;2022-10-30T09:29:29;6.20;;;5.60;;
10333;SDS011;5212;47.892;16.406;2022-10-30T09:31:56;4.97;;;4.57;;
10333;SDS011;5212;47.892;16.406;2022-10-30T09:57:36;7.93;;;6.67;;
10333;SDS011;5212;47.892;16.406;2022-10-30T11:02:53;7.83;;;7.03;;
10333;SDS011;5212;47.892;16.406;2022-10-30T11:05:26;8.33;;;7.50;;
10333;SDS011;5212;47.892;16.406;2022-10-30T11:07:58;7.10;;;6.40;;
10333;SDS011;5212;47.892;16.406;2022-10-30T11:10:29;7.77;;;6.90;;
10333;SDS011;5212;47.892;16.406;2022-10-30T11:12:56;8.10;;;7.30;;
10333;SDS011;5212;47.892;16.406;2022-10-30T11:18:00;9.87;;;8.87;;
10333;SDS011;5212;47.892;16.406;2022-10-30T12:04:26;10.43;;;9.33;;
10333;SDS011;5212;47.892;16.406;2022-10-30T12:37:48;9.67;;;8.67;;
10333;SDS011;5212;47.892;16.406;2022-10-30T12:40:19;11.97;;;10.70;;
10333;SDS011;5212;47.892;16.406;2022-10-30T13:06:26;10.33;;;9.27;;
10333;SDS011;5212;47.892;16.406;2022-10-30T13:09:02;9.10;;;8.20;;
10333;SDS011;5212;47.892;16.406;2022-10-30T13:11:35;8.93;;;8.03;;
10333;SDS011;5212;47.892;16.406;2022-10-30T13:14:10;9.00;;;8.10;;
10333;SDS011;5212;47.892;16.406;2022-10-30T13:16:41;9.70;;;8.70;;
10333;SDS011;5212;47.892;16.406;2022-10-30T13:19:09;11.90;;;10.10;;
10333;SDS011;5212;47.892;16.406;2022-10-30T13:35:00;8.90;;;8.00;;
10333;SDS011;5212;47.892;16.406;2022-10-30T13:37:35;9.20;;;8.30;;
10333;SDS011;5212;47.892;16.406;2022-10-30T13:40:09;9.53;;;8.47;;
10333;SDS011;5212;47.892;16.406;2022-10-30T13:42:49;9.33;;;8.33;;
10333;SDS011;5212;47.892;16.406;2022-10-30T13:50:38;8.90;;;8.00;;
10333;SDS011;5212;47.892;16.406;2022-10-30T13:53:12;9.30;;;8.37;;
10333;SDS011;5212;47.892;16.406;2022-10-30T13:55:41;9.17;;;8.23;;
10333;SDS011;5212;47.892;16.406;2022-10-30T13:58:11;10.60;;;9.43;;
10333;SDS011;5212;47.892;16.406;2022-10-30T14:00:45;10.53;;;9.20;;
10333;SDS011;5212;47.892;16.406;2022-10-30T14:03:32;10.30;;;9.20;;
10333;SDS011;5212;47.892;16.406;2022-10-30T14:06:10;10.07;;;9.00;;
10333;SDS011;5212;47.892;16.406;2022-10-30T14:08:41;9.13;;;8.20;;
10333;SDS011;5212;47.892;16.406;2022-10-30T14:26:44;11.27;;;9.77;;
10333;SDS011;5212;47.892;16.406;2022-10-30T14:31:48;11.67;;;9.50;;
10333;SDS011;5212;47.892;16.406;2022-10-30T14:49:49;10.93;;;9.17;;
10333;SDS011;5212;47.892;16.406;2022-10-30T15:03:03;13.30;;;10.73;;
10333;SDS011;5212;47.892;16.406;2022-10-30T15:05:42;11.40;;;9.57;;
10333;SDS011;5212;47.892;16.406;2022-10-30T15:39:16;11.93;;;9.50;;
10333;SDS011;5212;47.892;16.406;2022-10-30T17:56:15;12.67;;;10.50;;
10333;SDS011;5212;47.892;16.406;2022-10-30T17:58:44;11.43;;;10.20;;
10333;SDS011;5212;47.892;16.406;2022-10-30T18:01:12;10.10;;;8.97;;
10333;SDS011;5212;47.892;16.406;2022-10-30T18:03:39;11.33;;;9.67;;
10333;SDS011;5212;47.892;16.406;2022-10-30T18:06:08;11.33;;;8.93;;
10333;SDS011;5212;47.892;16.406;2022-10-30T18:08:39;10.73;;;9.23;;
10333;SDS011;5212;47.892;16.406;2022-10-30T18:11:07;10.97;;;9.17;;
10333;SDS011;5212;47.892;16.406;2022-10-30T18:13:37;10.87;;;9.47;;
10333;SDS011;5212;47.892;16.406;2022-10-30T18:16:04;10.43;;;9.33;;
10333;SDS011;5212;47.892;16.406;2022-10-30T18:18:34;12.67;;;10.63;;
10333;SDS011;5212;47.892;16.406;2022-10-30T18:21:01;10.80;;;9.40;;
10333;SDS011;5212;47.892;16.406;2022-10-30T18:23:28;13.07;;;10.83;;
10333;SDS011;5212;47.892;16.406;2022-10-30T18:25:55;10.23;;;8.90;;
10333;SDS011;5212;47.892;16.406;2022-10-30T18:28:22;11.07;;;8.67;;
10333;SDS011;5212;47.892;16.406;2022-10-30T18:30:51;11.90;;;10.27;;
10333;SDS011;5212;47.892;16.406;2022-10-30T18:33:19;12.33;;;10.30;;
10333;SDS011;5212;47.892;16.406;2022-10-30T18:35:46;11.90;;;9.87;;
10333;SDS011;5212;47.892;16.406;2022-10-30T18:38:13;10.10;;;8.70;;
10333;SDS011;5212;47.892;16.406;2022-10-30T18:40:41;11.37;;;9.50;;
10333;SDS011;5212;47.892;16.406;2022-10-30T18:43:10;10.67;;;9.00;;
10333;SDS011;5212;47.892;16.406;2022-10-30T18:45:37;10.40;;;9.30;;
10333;SDS011;5212;47.892;16.406;2022-10-30T19:06:10;15.30;;;12.10;;
10333;SDS011;5212;47.892;16.406;2022-10-30T19:08:38;13.23;;;10.97;;
10333;SDS011;5212;47.892;16.406;2022-10-30T19:11:05;13.03;;;10.63;;
10333;SDS011;5212;47.892;16.406;2022-10-30T19:13:34;15.73;;;12.17;;
10333;SDS011;5212;47.892;16.406;2022-10-30T19:16:09;12.13;;;10.07;;
10333;SDS011;5212;47.892;16.406;2022-10-30T19:18:36;12.30;;;10.57;;
10333;SDS011;5212;47.892;16.406;2022-10-30T19:21:03;12.83;;;10.73;;
10333;SDS011;5212;47.892;16.406;2022-10-30T19:23:32;12.13;;;10.37;;
10333;SDS011;5212;47.892;16.406;2022-10-30T19:25:59;10.67;;;9.17;;
10333;SDS011;5212;47.892;16.406;2022-10-30T19:28:26;14.07;;;11.53;;
10333;SDS011;5212;47.892;16.406;2022-10-30T19:30:54;12.77;;;11.00;;
10333;SDS011;5212;47.892;16.406;2022-10-30T19:33:22;13.27;;;11.00;;
10333;SDS011;5212;47.892;16.406;2022-10-30T19:38:24;10.30;;;8.73;;
10333;SDS011;5212;47.892;16.406;2022-10-30T19:46:03;14.70;;;12.03;;
10333;SDS011;5212;47.892;16.406;2022-10-30T19:48:30;12.20;;;10.40;;
10333;SDS011;5212;47.892;16.406;2022-10-30T19:50:57;13.00;;;11.30;;
10333;SDS011;5212;47.892;16.406;2022-10-30T19:53:24;11.70;;;10.50;;
10333;SDS011;5212;47.892;16.406;2022-10-30T19:55:51;10.83;;;9.07;;
10333;SDS011;5212;47.892;16.406;2022-10-30T20:00:47;13.47;;;11.57;;
10333;SDS011;5212;47.892;16.406;2022-10-30T20:18:40;12.90;;;10.83;;
10333;SDS011;5212;47.892;16.406;2022-10-30T20:21:08;13.37;;;10.47;;
10333;SDS011;5212;47.892;16.406;2022-10-30T21:12:39;10.47;;;9.37;;
10333;SDS011;5212;47.892;16.406;2022-10-30T21:15:07;9.50;;;8.50;;
10333;SDS011;5212;47.892;16.406;2022-10-30T21:28:05;8.87;;;7.97;;
10333;SDS011;5212;47.892;16.406;2022-10-30T21:30:31;12.30;;;10.93;;
10333;SDS011;5212;47.892;16.406;2022-10-30T21:48:45;9.73;;;8.60;;
10333;SDS011;5212;47.892;16.406;2022-10-30T21:54:01;9.33;;;8.00;;
10333;SDS011;5212;47.892;16.406;2022-10-30T21:56:28;9.13;;;7.30;;
10333;SDS011;5212;47.892;16.406;2022-10-30T21:58:55;10.53;;;9.17;;
